createdAt,value
2022-09-30T00:04:41.920Z,9.70
2022-09-30T00:09:25.666Z,9.70
2022-09-30T00:14:16.377Z,9.70
2022-09-30T00:19:00.612Z,9.60
2022-09-30T00:23:45.070Z,9.60
2022-09-30T00:28:28.852Z,9.50
2022-09-30T00:33:13.646Z,9.50
2022-09-30T00:37:57.137Z,9.50
2022-09-30T00:42:42.513Z,9.50
2022-09-30T00:47:49.405Z,9.60
2022-09-30T00:52:35.379Z,9.60
2022-09-30T00:57:19.088Z,9.60
2022-09-30T01:02:02.958Z,9.70
2022-09-30T01:06:46.552Z,9.70
2022-09-30T01:11:31.763Z,9.60
2022-09-30T01:16:44.500Z,9.70
2022-09-30T01:21:58.959Z,9.60
2022-09-30T01:27:11.876Z,9.60
2022-09-30T01:32:03.724Z,9.60
2022-09-30T01:37:01.104Z,9.60
2022-09-30T01:41:53.221Z,9.60
2022-09-30T01:46:44.514Z,9.60
2022-09-30T01:51:40.133Z,9.60
2022-09-30T01:56:28.632Z,9.70
2022-09-30T02:01:19.459Z,9.70
2022-09-30T02:06:06.353Z,9.70
2022-09-30T02:10:57.279Z,9.70
2022-09-30T02:15:44.848Z,9.70
2022-09-30T02:20:31.752Z,9.70
2022-09-30T02:25:22.026Z,9.60
2022-09-30T02:30:09.501Z,9.70
2022-09-30T02:34:56.165Z,9.70
2022-09-30T02:39:44.836Z,9.60
2022-09-30T02:44:28.740Z,9.70
2022-09-30T02:49:21.593Z,9.70
2022-09-30T02:54:13.724Z,9.70
2022-09-30T02:58:58.732Z,9.60
2022-09-30T03:03:46.143Z,9.60
2022-09-30T03:08:31.285Z,9.50
2022-09-30T03:13:32.235Z,9.50
2022-09-30T03:18:34.282Z,9.50
2022-09-30T03:23:41.111Z,9.50
2022-09-30T03:28:28.295Z,9.50
2022-09-30T03:33:17.610Z,9.50
2022-09-30T03:38:07.655Z,9.50
2022-09-30T03:42:58.862Z,9.60
2022-09-30T03:47:45.856Z,9.60
2022-09-30T03:52:32.377Z,9.60
2022-09-30T03:57:15.862Z,9.60
2022-09-30T04:02:00.885Z,9.60
2022-09-30T04:06:44.465Z,9.60
2022-09-30T04:11:27.967Z,9.60
2022-09-30T04:16:11.812Z,9.60
2022-09-30T04:20:56.702Z,9.60
2022-09-30T04:25:40.153Z,9.60
2022-09-30T04:30:25.766Z,9.60
2022-09-30T04:35:10.926Z,9.60
2022-09-30T04:39:55.765Z,9.60
2022-09-30T04:44:42.083Z,9.60
2022-09-30T04:49:25.664Z,9.70
2022-09-30T04:54:09.030Z,9.70
2022-09-30T04:58:54.415Z,9.70
2022-09-30T05:03:38.747Z,9.70
2022-09-30T05:08:22.573Z,9.60
2022-09-30T05:13:06.155Z,9.60
2022-09-30T05:17:52.205Z,9.60
2022-09-30T05:22:35.707Z,9.60
2022-09-30T05:27:19.293Z,9.50
2022-09-30T05:32:02.966Z,9.50
2022-09-30T05:36:47.761Z,9.50
2022-09-30T05:41:31.194Z,9.60
2022-09-30T05:46:14.728Z,9.60
2022-09-30T05:51:01.085Z,9.60
2022-09-30T05:55:48.994Z,9.70
2022-09-30T06:00:32.493Z,9.80
2022-09-30T06:05:16.151Z,9.90
2022-09-30T06:09:59.606Z,9.80
2022-09-30T06:14:44.413Z,9.80
2022-09-30T06:19:28.181Z,9.80
2022-09-30T06:24:13.411Z,9.80
2022-09-30T06:28:56.953Z,9.90
2022-09-30T06:33:42.741Z,10.00
2022-09-30T06:38:28.893Z,10.10
2022-09-30T06:43:12.651Z,10.10
2022-09-30T06:48:00.705Z,10.20
2022-09-30T06:52:46.001Z,10.30
2022-09-30T06:57:29.541Z,10.30
2022-09-30T07:02:13.570Z,10.40
2022-09-30T07:06:57.078Z,10.30
2022-09-30T07:11:41.978Z,10.20
2022-09-30T07:16:25.876Z,10.10
2022-09-30T07:21:09.970Z,10.10
2022-09-30T07:25:56.953Z,10.20
2022-09-30T07:30:43.719Z,10.20
2022-09-30T07:35:27.184Z,10.40
2022-09-30T07:40:11.579Z,10.50
2022-09-30T07:44:55.029Z,10.70
2022-09-30T07:49:40.429Z,11.00
2022-09-30T07:54:25.356Z,11.20
2022-09-30T07:59:09.071Z,11.20
2022-09-30T08:03:55.611Z,11.20
2022-09-30T08:08:41.394Z,11.10
2022-09-30T08:13:24.857Z,10.90
2022-09-30T08:18:08.295Z,10.80
2022-09-30T08:22:54.460Z,10.80
2022-09-30T08:27:39.292Z,10.70
2022-09-30T08:32:22.874Z,10.80
2022-09-30T08:37:09.167Z,11.00
2022-09-30T08:42:37.183Z,11.10
2022-09-30T08:47:42.259Z,11.00
2022-09-30T08:52:48.002Z,11.10
2022-09-30T08:57:45.076Z,11.00
2022-09-30T09:02:34.697Z,11.30
2022-09-30T09:07:30.738Z,11.30
2022-09-30T09:12:31.269Z,11.50
2022-09-30T09:17:27.574Z,11.30
2022-09-30T09:22:12.719Z,11.20
2022-09-30T09:26:58.929Z,11.40
2022-09-30T09:31:42.494Z,11.40
2022-09-30T09:36:39.734Z,11.50
2022-09-30T09:41:34.716Z,11.70
2022-09-30T09:46:26.047Z,11.90
2022-09-30T09:51:17.464Z,12.30
2022-09-30T09:56:03.294Z,12.70
2022-09-30T10:01:12.035Z,12.60
2022-09-30T10:06:05.285Z,12.70
2022-09-30T10:10:51.659Z,12.60
2022-09-30T10:15:37.834Z,12.70
2022-09-30T10:20:27.996Z,12.70
2022-09-30T10:25:19.968Z,12.70
2022-09-30T10:30:03.689Z,12.00
2022-09-30T10:34:47.353Z,12.10
2022-09-30T10:39:35.403Z,12.60
2022-09-30T10:44:22.958Z,13.10
2022-09-30T10:49:12.023Z,13.50
2022-09-30T10:53:56.263Z,13.70
2022-09-30T10:58:47.531Z,13.60
2022-09-30T11:03:37.274Z,13.60
2022-09-30T11:08:26.251Z,13.60
2022-09-30T11:13:14.422Z,13.50
2022-09-30T11:18:03.339Z,13.50
2022-09-30T11:22:52.903Z,13.40
2022-09-30T11:27:54.251Z,13.30
2022-09-30T11:32:57.280Z,13.20
2022-09-30T11:38:06.162Z,13.30
2022-09-30T11:42:56.380Z,13.40
2022-09-30T11:47:55.072Z,13.50
2022-09-30T11:52:49.744Z,13.80
2022-09-30T11:57:38.777Z,14.10
2022-09-30T12:02:33.106Z,14.30
2022-09-30T12:07:21.320Z,13.90
2022-09-30T12:12:15.295Z,14.30
2022-09-30T12:17:04.457Z,14.20
2022-09-30T12:21:54.681Z,13.30
2022-09-30T12:26:38.667Z,13.10
2022-09-30T12:31:44.840Z,13.30
2022-09-30T12:36:55.663Z,12.80
2022-09-30T12:41:54.966Z,12.70
2022-09-30T12:46:54.016Z,12.90
2022-09-30T12:51:43.695Z,12.90
2022-09-30T12:56:30.002Z,13.40
2022-09-30T13:01:18.337Z,14.00
2022-09-30T13:06:06.703Z,14.20
2022-09-30T13:10:59.478Z,14.60
2022-09-30T13:15:44.866Z,14.70
2022-09-30T13:20:55.293Z,15.50
2022-09-30T13:25:57.841Z,14.90
2022-09-30T13:30:42.252Z,14.10
2022-09-30T13:35:33.662Z,14.70
2022-09-30T13:40:43.269Z,15.20
2022-09-30T13:45:39.661Z,15.00
2022-09-30T13:50:28.217Z,15.40
2022-09-30T13:55:19.924Z,16.00
2022-09-30T14:00:09.851Z,15.30
2022-09-30T14:05:09.817Z,16.00
2022-09-30T14:10:09.648Z,18.30
2022-09-30T14:15:26.393Z,21.50
2022-09-30T14:20:33.846Z,17.90
2022-09-30T14:25:19.294Z,17.20
2022-09-30T14:30:07.984Z,16.20
2022-09-30T14:34:52.311Z,17.20
2022-09-30T14:39:37.804Z,17.60
2022-09-30T14:44:22.447Z,17.80
2022-09-30T14:49:08.549Z,17.70
2022-09-30T14:53:56.620Z,19.30
2022-09-30T14:58:43.490Z,19.40
2022-09-30T15:03:27.365Z,18.80
2022-09-30T15:08:19.668Z,18.30
2022-09-30T15:13:04.627Z,17.90
2022-09-30T15:17:52.058Z,18.40
2022-09-30T15:22:35.801Z,18.90
2022-09-30T15:27:23.633Z,18.90
2022-09-30T15:32:21.940Z,19.80
2022-09-30T15:37:07.951Z,19.30
2022-09-30T15:41:53.553Z,18.80
2022-09-30T15:46:40.622Z,18.00
2022-09-30T15:51:35.983Z,18.80
2022-09-30T15:56:26.806Z,18.70
2022-09-30T16:01:15.253Z,17.50
2022-09-30T16:06:10.429Z,16.70
2022-09-30T16:10:56.822Z,15.90
2022-09-30T16:15:41.724Z,15.30
2022-09-30T16:20:26.722Z,14.70
2022-09-30T16:25:18.574Z,14.40
2022-09-30T16:30:02.741Z,13.80
2022-09-30T16:34:47.827Z,13.70
2022-09-30T16:39:31.330Z,13.50
2022-09-30T16:44:15.031Z,13.40
2022-09-30T16:48:58.383Z,13.20
2022-09-30T16:53:44.184Z,13.00
2022-09-30T16:58:27.888Z,12.90
2022-09-30T17:03:14.777Z,12.70
2022-09-30T17:08:00.711Z,12.60
2022-09-30T17:12:45.778Z,12.50
2022-09-30T17:17:29.589Z,12.40
2022-09-30T17:22:13.057Z,11.90
2022-09-30T17:26:56.973Z,11.80
2022-09-30T17:31:44.397Z,11.70
2022-09-30T17:36:28.285Z,11.70
2022-09-30T17:41:31.949Z,11.70
2022-09-30T17:46:19.146Z,11.60
2022-09-30T17:51:04.207Z,11.50
2022-09-30T17:55:49.643Z,11.30
2022-09-30T18:00:33.817Z,11.20
2022-09-30T18:05:18.183Z,11.30
2022-09-30T18:10:03.635Z,11.30
2022-09-30T18:14:47.950Z,11.40
2022-09-30T18:19:33.350Z,11.40
2022-09-30T18:24:18.668Z,11.30
2022-09-30T18:29:04.135Z,11.30
2022-09-30T18:33:51.708Z,11.20
2022-09-30T18:38:36.031Z,11.20
2022-09-30T18:43:20.560Z,11.20
2022-09-30T18:48:07.661Z,11.10
2022-09-30T18:52:52.676Z,11.10
2022-09-30T18:57:36.177Z,11.10
2022-09-30T19:02:21.035Z,11.10
2022-09-30T19:07:06.453Z,11.10
2022-09-30T19:11:51.732Z,11.10
2022-09-30T19:16:38.640Z,11.10
2022-09-30T19:21:24.119Z,11.00
2022-09-30T19:26:11.076Z,11.10
2022-09-30T19:30:56.046Z,11.00
2022-09-30T19:35:41.057Z,11.20
2022-09-30T19:40:26.524Z,11.10
2022-09-30T19:45:13.520Z,11.10
2022-09-30T19:49:59.749Z,11.10
2022-09-30T19:54:44.181Z,11.10
2022-09-30T19:59:31.276Z,11.10
2022-09-30T20:04:19.126Z,11.00
2022-09-30T20:09:05.162Z,11.00
2022-09-30T20:14:12.527Z,11.00
2022-09-30T20:18:56.278Z,11.00
2022-09-30T20:23:42.080Z,10.90
2022-09-30T20:28:26.030Z,10.90
2022-09-30T20:33:10.178Z,10.90
2022-09-30T20:37:54.474Z,10.80
2022-09-30T20:42:40.404Z,10.80
2022-09-30T20:47:25.084Z,10.80
2022-09-30T20:52:08.686Z,10.80
2022-09-30T20:57:06.972Z,10.80
2022-09-30T21:01:52.989Z,10.70
2022-09-30T21:06:36.545Z,10.80
2022-09-30T21:11:20.671Z,10.80
2022-09-30T21:16:07.919Z,10.80
2022-09-30T21:20:59.057Z,10.80
2022-09-30T21:25:43.282Z,10.80
2022-09-30T21:30:29.102Z,10.70
2022-09-30T21:35:14.020Z,10.70
2022-09-30T21:39:59.032Z,10.60
2022-09-30T21:44:42.668Z,10.60
2022-09-30T21:49:26.433Z,10.60
2022-09-30T21:54:13.855Z,10.60
2022-09-30T21:58:58.930Z,10.60
2022-09-30T22:03:42.445Z,10.60
2022-09-30T22:08:26.618Z,10.60
2022-09-30T22:13:10.763Z,10.60
2022-09-30T22:17:55.884Z,10.70
2022-09-30T22:22:40.938Z,10.70
2022-09-30T22:27:25.061Z,10.60
2022-09-30T22:32:08.588Z,10.60
2022-09-30T22:37:25.734Z,10.30
2022-09-30T22:42:09.649Z,10.30
2022-09-30T22:46:53.702Z,10.30
2022-09-30T22:51:37.243Z,10.20
2022-09-30T22:56:22.176Z,10.30
2022-09-30T23:01:06.217Z,10.30
2022-09-30T23:05:50.272Z,10.20
2022-09-30T23:10:33.892Z,10.10
2022-09-30T23:15:18.935Z,9.90
2022-09-30T23:20:22.346Z,9.80
2022-09-30T23:25:25.797Z,9.70
2022-09-30T23:30:30.662Z,9.40
2022-09-30T23:35:14.461Z,9.10
2022-09-30T23:39:58.361Z,9.10
2022-09-30T23:44:41.787Z,8.90
2022-09-30T23:49:26.685Z,9.20
2022-09-30T23:54:10.220Z,9.00
2022-09-30T23:58:53.595Z,8.80
